createdAt,value
2023-03-19T00:00:33.050Z,4.72
2023-03-19T00:03:00.108Z,6.43
2023-03-19T00:05:26.940Z,5.55
2023-03-19T00:07:53.539Z,9.77
2023-03-19T00:10:20.484Z,5.60
2023-03-19T00:12:47.345Z,4.43
2023-03-19T00:15:15.220Z,7.88
2023-03-19T00:17:42.886Z,6.82
2023-03-19T00:20:11.534Z,8.07
2023-03-19T00:22:38.224Z,3.80
2023-03-19T00:25:05.173Z,6.97
2023-03-19T00:27:31.734Z,8.73
2023-03-19T00:29:58.281Z,9.40
2023-03-19T00:32:25.631Z,9.35
2023-03-19T00:34:52.817Z,6.82
2023-03-19T00:37:19.434Z,3.38
2023-03-19T00:39:45.945Z,5.75
2023-03-19T00:42:13.530Z,3.70
2023-03-19T00:44:40.019Z,6.85
2023-03-19T00:47:07.271Z,5.50
2023-03-19T00:49:33.805Z,6.57
2023-03-19T00:52:00.493Z,3.60
2023-03-19T00:54:27.457Z,5.28
2023-03-19T00:56:54.190Z,8.02
2023-03-19T00:59:20.775Z,10.07
2023-03-19T01:01:47.388Z,4.70
2023-03-19T01:04:14.852Z,10.50
2023-03-19T01:06:41.922Z,5.88
2023-03-19T01:09:08.593Z,7.38
2023-03-19T01:11:36.330Z,5.93
2023-03-19T01:14:02.883Z,5.95
2023-03-19T01:16:29.500Z,6.07
2023-03-19T01:18:56.123Z,4.90
2023-03-19T01:21:23.009Z,7.18
2023-03-19T01:23:51.795Z,4.28
2023-03-19T01:26:19.457Z,3.72
2023-03-19T01:28:47.846Z,3.15
2023-03-19T01:31:15.611Z,5.85
2023-03-19T01:33:51.551Z,4.03
2023-03-19T01:36:47.246Z,3.47
2023-03-19T01:39:16.981Z,3.80
2023-03-19T01:41:44.132Z,4.38
2023-03-19T01:44:30.674Z,3.70
2023-03-19T01:47:29.540Z,5.60
2023-03-19T01:50:40.965Z,3.30
2023-03-19T01:53:27.692Z,4.95
2023-03-19T01:56:26.939Z,4.28
2023-03-19T01:59:18.117Z,5.13
2023-03-19T02:02:11.894Z,5.90
2023-03-19T02:04:41.960Z,6.00
2023-03-19T02:07:09.557Z,2.78
2023-03-19T02:09:37.030Z,8.23
2023-03-19T02:12:04.592Z,5.68
2023-03-19T02:14:31.457Z,6.20
2023-03-19T02:16:58.342Z,4.78
2023-03-19T02:19:31.100Z,10.07
2023-03-19T02:22:00.219Z,4.85
2023-03-19T02:24:33.760Z,5.97
2023-03-19T02:27:09.053Z,7.45
2023-03-19T02:29:38.458Z,6.53
2023-03-19T02:32:05.092Z,3.92
2023-03-19T02:34:36.302Z,3.50
2023-03-19T02:37:26.372Z,8.55
2023-03-19T02:40:07.823Z,2.53
2023-03-19T02:42:35.300Z,4.95
2023-03-19T02:45:01.935Z,6.38
2023-03-19T02:47:28.719Z,5.43
2023-03-19T02:49:55.460Z,4.35
2023-03-19T02:52:22.916Z,5.07
2023-03-19T02:54:49.557Z,6.30
2023-03-19T02:57:16.414Z,4.85
2023-03-19T02:59:42.915Z,4.72
2023-03-19T03:02:10.419Z,5.30
2023-03-19T03:04:37.205Z,4.55
2023-03-19T03:07:04.803Z,3.30
2023-03-19T03:09:31.803Z,6.18
2023-03-19T03:11:58.755Z,8.07
2023-03-19T03:14:25.300Z,5.22
2023-03-19T03:16:52.296Z,7.18
2023-03-19T03:19:19.474Z,8.80
2023-03-19T03:21:46.929Z,5.90
2023-03-19T03:24:13.525Z,6.20
2023-03-19T03:26:40.404Z,6.03
2023-03-19T03:29:07.332Z,4.35
2023-03-19T03:31:34.770Z,6.05
2023-03-19T03:34:01.961Z,6.18
2023-03-19T03:36:28.756Z,6.85
2023-03-19T03:38:55.541Z,7.65
2023-03-19T03:41:22.369Z,6.70
2023-03-19T03:43:49.157Z,8.85
2023-03-19T03:46:15.786Z,3.03
2023-03-19T03:48:43.016Z,5.18
2023-03-19T03:51:10.022Z,9.40
2023-03-19T03:53:36.645Z,4.70
2023-03-19T03:56:04.423Z,6.22
2023-03-19T03:58:31.634Z,5.55
2023-03-19T04:00:58.336Z,5.43
2023-03-19T04:03:25.172Z,6.57
2023-03-19T04:05:52.741Z,5.45
2023-03-19T04:08:21.256Z,3.22
2023-03-19T04:10:47.912Z,4.78
2023-03-19T04:13:14.861Z,5.85
2023-03-19T04:15:44.716Z,8.07
2023-03-19T04:18:12.317Z,5.78
2023-03-19T04:20:39.042Z,3.83
2023-03-19T04:23:05.652Z,3.13
2023-03-19T04:25:32.673Z,5.05
2023-03-19T04:27:59.216Z,5.45
2023-03-19T04:30:28.267Z,3.22
2023-03-19T04:32:56.581Z,5.38
2023-03-19T04:35:23.169Z,7.45
2023-03-19T04:37:49.780Z,5.25
2023-03-19T04:40:18.405Z,3.80
2023-03-19T04:42:45.144Z,4.97
2023-03-19T04:45:28.079Z,2.05
2023-03-19T04:47:54.631Z,5.43
2023-03-19T04:50:21.234Z,4.85
2023-03-19T04:52:47.952Z,2.92
2023-03-19T04:55:15.149Z,5.57
2023-03-19T04:57:59.573Z,4.60
2023-03-19T05:00:30.515Z,4.88
2023-03-19T05:02:57.669Z,2.72
2023-03-19T05:05:24.512Z,8.52
2023-03-19T05:07:51.074Z,2.65
2023-03-19T05:10:17.734Z,6.30
2023-03-19T05:12:44.705Z,2.53
2023-03-19T05:15:12.105Z,5.95
2023-03-19T05:17:45.457Z,6.15
2023-03-19T05:20:15.916Z,6.22
2023-03-19T05:22:48.582Z,6.82
2023-03-19T05:25:17.214Z,3.63
2023-03-19T05:27:44.996Z,4.60
2023-03-19T05:30:18.410Z,6.88
2023-03-19T05:33:01.072Z,4.10
2023-03-19T05:35:37.683Z,4.72
2023-03-19T05:38:11.030Z,3.15
2023-03-19T05:40:41.814Z,4.07
2023-03-19T05:43:19.787Z,4.00
2023-03-19T05:45:51.733Z,3.30
2023-03-19T05:48:22.205Z,7.85
2023-03-19T05:50:48.972Z,4.32
2023-03-19T05:53:24.719Z,3.47
2023-03-19T05:56:11.666Z,6.78
2023-03-19T05:58:50.925Z,6.03
2023-03-19T06:01:22.705Z,2.33
2023-03-19T06:03:49.538Z,5.97
2023-03-19T06:06:16.531Z,2.88
2023-03-19T06:08:45.209Z,3.63
2023-03-19T06:11:16.785Z,3.60
2023-03-19T06:13:47.500Z,5.22
2023-03-19T06:16:16.811Z,3.55
2023-03-19T06:18:51.565Z,7.93
2023-03-19T06:21:18.914Z,3.03
2023-03-19T06:23:45.736Z,2.78
2023-03-19T06:26:16.152Z,6.28
2023-03-19T06:28:48.841Z,2.88
2023-03-19T06:31:16.514Z,6.43
2023-03-19T06:34:03.344Z,2.05
2023-03-19T06:36:38.284Z,2.50
2023-03-19T06:39:05.135Z,2.65
2023-03-19T06:41:31.785Z,8.00
2023-03-19T06:44:08.826Z,4.28
2023-03-19T06:46:35.310Z,9.20
2023-03-19T06:49:01.847Z,2.90
2023-03-19T06:51:28.507Z,5.90
2023-03-19T06:53:55.201Z,3.90
2023-03-19T06:56:21.911Z,6.85
2023-03-19T06:58:48.498Z,4.35
2023-03-19T07:01:15.030Z,7.05
2023-03-19T07:03:41.773Z,9.80
2023-03-19T07:06:08.293Z,6.05
2023-03-19T07:08:34.880Z,5.70
2023-03-19T07:11:06.006Z,9.38
2023-03-19T07:13:33.564Z,5.53
2023-03-19T07:16:00.507Z,2.63
2023-03-19T07:18:27.142Z,5.40
2023-03-19T07:20:53.781Z,4.43
2023-03-19T07:23:20.358Z,7.03
2023-03-19T07:25:47.592Z,7.22
2023-03-19T07:28:14.384Z,4.05
2023-03-19T07:30:40.896Z,5.10
2023-03-19T07:33:08.119Z,7.43
2023-03-19T07:35:35.289Z,3.35
2023-03-19T07:38:02.764Z,3.45
2023-03-19T07:40:29.649Z,4.30
2023-03-19T07:42:56.231Z,4.70
2023-03-19T07:45:23.169Z,7.45
2023-03-19T07:47:51.394Z,3.90
2023-03-19T07:50:18.077Z,3.05
2023-03-19T07:52:49.327Z,3.63
2023-03-19T07:55:15.850Z,3.03
2023-03-19T07:57:42.642Z,6.25
2023-03-19T08:00:10.630Z,2.78
2023-03-19T08:02:40.614Z,4.45
2023-03-19T08:05:08.047Z,2.67
2023-03-19T08:07:34.613Z,5.93
2023-03-19T08:10:01.643Z,4.30
2023-03-19T08:12:28.314Z,3.42
2023-03-19T08:14:54.930Z,4.82
2023-03-19T08:17:22.003Z,5.10
2023-03-19T08:19:48.506Z,4.05
2023-03-19T08:22:15.279Z,5.97
2023-03-19T08:24:41.768Z,3.78
2023-03-19T08:27:08.466Z,3.40
2023-03-19T08:29:35.315Z,7.28
2023-03-19T08:32:01.994Z,4.28
2023-03-19T08:34:29.148Z,3.92
2023-03-19T08:36:55.854Z,4.97
2023-03-19T08:39:22.425Z,3.03
2023-03-19T08:41:48.987Z,4.00
2023-03-19T08:44:16.198Z,2.83
2023-03-19T08:46:42.918Z,3.90
2023-03-19T08:49:09.527Z,3.13
2023-03-19T08:51:36.264Z,3.45
2023-03-19T08:54:02.885Z,1.98
2023-03-19T08:56:29.521Z,3.95
2023-03-19T08:58:57.059Z,2.55
2023-03-19T09:01:24.262Z,5.72
2023-03-19T09:03:50.800Z,3.25
2023-03-19T09:06:17.565Z,4.93
2023-03-19T09:08:44.863Z,4.40
2023-03-19T09:11:11.592Z,4.00
2023-03-19T09:13:38.236Z,4.53
2023-03-19T09:16:05.471Z,5.07
2023-03-19T09:18:32.845Z,4.50
2023-03-19T09:20:59.992Z,6.05
2023-03-19T09:23:26.646Z,3.25
2023-03-19T09:25:53.781Z,3.75
2023-03-19T09:28:21.101Z,5.03
2023-03-19T09:30:49.220Z,4.65
2023-03-19T09:33:17.387Z,3.65
2023-03-19T09:35:48.674Z,3.63
2023-03-19T09:38:15.404Z,6.97
2023-03-19T09:40:45.860Z,3.88
2023-03-19T09:43:18.309Z,3.38
2023-03-19T09:45:47.385Z,4.40
2023-03-19T09:48:28.766Z,3.17
2023-03-19T09:50:56.760Z,3.53
2023-03-19T09:53:43.432Z,4.32
2023-03-19T09:56:15.024Z,5.63
2023-03-19T09:58:42.548Z,7.00
2023-03-19T10:01:23.230Z,3.55
2023-03-19T10:04:09.518Z,5.50
2023-03-19T10:06:40.101Z,5.75
2023-03-19T10:09:31.591Z,4.82
2023-03-19T10:12:11.810Z,4.32
2023-03-19T10:14:47.937Z,3.42
2023-03-19T10:17:39.459Z,4.22
2023-03-19T10:20:10.525Z,5.28
2023-03-19T10:22:48.851Z,4.82
2023-03-19T10:25:22.726Z,6.07
2023-03-19T10:27:55.988Z,3.70
2023-03-19T10:30:22.714Z,3.35
2023-03-19T10:33:07.678Z,5.07
2023-03-19T10:35:43.185Z,4.13
2023-03-19T10:40:55.083Z,3.78
2023-03-19T10:43:25.430Z,3.70
2023-03-19T10:45:51.988Z,5.13
2023-03-19T10:48:19.090Z,6.80
2023-03-19T10:50:54.824Z,3.08
2023-03-19T10:53:30.932Z,4.15
2023-03-19T10:56:16.199Z,4.93
2023-03-19T10:59:05.853Z,3.13
2023-03-19T11:01:41.562Z,6.30
2023-03-19T11:04:22.146Z,3.63
2023-03-19T11:06:51.445Z,4.10
2023-03-19T11:09:33.057Z,5.75
2023-03-19T11:12:08.516Z,3.38
2023-03-19T11:17:29.480Z,3.80
2023-03-19T11:19:58.942Z,4.60
2023-03-19T11:22:31.566Z,2.80
2023-03-19T11:25:14.305Z,2.40
2023-03-19T11:27:41.339Z,4.32
2023-03-19T11:30:16.961Z,2.72
2023-03-19T11:33:23.258Z,4.10
2023-03-19T11:36:08.319Z,3.83
2023-03-19T11:38:58.499Z,5.33
2023-03-19T11:41:50.831Z,2.83
2023-03-19T11:44:35.200Z,2.65
2023-03-19T11:47:26.446Z,2.20
2023-03-19T11:50:18.708Z,2.42
2023-03-19T11:53:11.910Z,2.58
2023-03-19T11:56:01.049Z,3.15
2023-03-19T11:58:51.829Z,2.80
2023-03-19T12:01:25.246Z,2.63
2023-03-19T12:04:02.370Z,3.58
2023-03-19T12:06:36.845Z,1.90
2023-03-19T12:09:19.544Z,1.35
2023-03-19T12:11:53.652Z,1.10
2023-03-19T12:14:42.181Z,2.33
2023-03-19T12:17:23.923Z,2.13
2023-03-19T12:20:33.697Z,2.78
2023-03-19T12:23:27.478Z,3.88
2023-03-19T12:26:04.749Z,1.15
2023-03-19T12:28:51.143Z,3.15
2023-03-19T12:31:42.957Z,2.03
2023-03-19T12:34:34.453Z,2.40
2023-03-19T12:37:32.832Z,6.93
2023-03-19T12:40:19.110Z,2.88
2023-03-19T12:42:45.771Z,4.03
2023-03-19T12:45:22.976Z,2.47
2023-03-19T12:47:54.287Z,4.60
2023-03-19T12:50:22.448Z,2.88
2023-03-19T12:52:58.273Z,3.08
2023-03-19T12:55:42.904Z,3.50
2023-03-19T12:58:21.859Z,6.78
2023-03-19T13:00:51.106Z,4.40
2023-03-19T13:03:23.501Z,3.28
2023-03-19T13:06:05.016Z,6.10
2023-03-19T13:08:45.197Z,4.32
2023-03-19T13:11:23.439Z,6.05
2023-03-19T13:14:00.051Z,9.35
2023-03-19T13:16:42.153Z,6.60
2023-03-19T13:19:35.890Z,5.05
2023-03-19T13:22:09.653Z,5.28
2023-03-19T13:24:43.241Z,4.72
2023-03-19T13:27:18.267Z,3.65
2023-03-19T13:30:10.092Z,3.15
2023-03-19T13:32:42.736Z,4.30
2023-03-19T13:35:40.727Z,4.70
2023-03-19T13:38:15.500Z,5.13
2023-03-19T13:40:50.751Z,7.25
2023-03-19T13:43:29.803Z,5.43
2023-03-19T13:46:04.678Z,4.15
2023-03-19T13:48:46.581Z,3.75
2023-03-19T13:51:19.326Z,4.85
2023-03-19T13:54:11.553Z,3.13
2023-03-19T13:57:07.634Z,3.45
2023-03-19T13:59:36.745Z,12.30
2023-03-19T14:02:24.050Z,4.32
2023-03-19T14:05:04.058Z,5.05
2023-03-19T14:07:43.682Z,6.45
2023-03-19T14:10:22.702Z,7.30
2023-03-19T14:12:49.701Z,6.97
2023-03-19T14:15:23.786Z,5.85
2023-03-19T14:17:50.287Z,6.13
2023-03-19T14:20:21.189Z,11.93
2023-03-19T14:23:03.509Z,6.47
2023-03-19T14:25:57.836Z,8.48
2023-03-19T14:28:54.682Z,7.03
2023-03-19T14:31:26.818Z,7.55
2023-03-19T14:34:06.365Z,7.10
2023-03-19T14:36:36.914Z,6.55
2023-03-19T14:39:12.540Z,6.45
2023-03-19T14:41:44.810Z,7.05
2023-03-19T14:44:11.265Z,10.05
2023-03-19T14:47:15.330Z,5.78
2023-03-19T14:50:23.445Z,7.88
2023-03-19T14:53:04.233Z,5.78
2023-03-19T14:55:37.202Z,13.13
2023-03-19T14:58:04.629Z,4.68
2023-03-19T15:00:43.281Z,6.57
2023-03-19T15:03:28.541Z,7.63
2023-03-19T15:06:04.505Z,6.80
2023-03-19T15:08:36.091Z,5.28
2023-03-19T15:11:24.055Z,5.63
2023-03-19T15:14:11.900Z,7.97
2023-03-19T15:16:44.678Z,6.85
2023-03-19T15:19:11.572Z,5.00
2023-03-19T15:21:39.414Z,7.22
2023-03-19T15:24:13.139Z,3.65
2023-03-19T15:26:40.091Z,8.40
2023-03-19T15:29:12.090Z,4.88
2023-03-19T15:32:03.659Z,3.45
2023-03-19T15:34:31.109Z,4.65
2023-03-19T15:37:04.238Z,2.90
2023-03-19T15:39:36.866Z,4.88
2023-03-19T15:42:04.900Z,5.18
2023-03-19T15:44:38.244Z,3.67
2023-03-19T15:47:09.010Z,10.40
2023-03-19T15:49:39.773Z,3.42
2023-03-19T15:52:11.686Z,3.58
2023-03-19T15:54:38.812Z,5.45
2023-03-19T15:57:08.070Z,4.63
2023-03-19T15:59:34.900Z,3.50
2023-03-19T16:02:13.118Z,4.78
2023-03-19T16:05:06.698Z,3.72
2023-03-19T16:07:32.542Z,5.80
2023-03-19T16:09:59.878Z,3.53
2023-03-19T16:12:40.457Z,3.13
2023-03-19T16:15:28.554Z,5.32
2023-03-19T16:17:55.654Z,4.93
2023-03-19T16:20:22.519Z,3.60
2023-03-19T16:22:58.562Z,3.78
2023-03-19T16:25:30.146Z,4.65
2023-03-19T16:27:56.762Z,5.00
2023-03-19T16:30:26.506Z,4.90
2023-03-19T16:32:59.354Z,5.78
2023-03-19T16:35:27.757Z,3.17
2023-03-19T16:37:54.598Z,3.40
2023-03-19T16:40:21.232Z,3.35
2023-03-19T16:42:49.465Z,5.65
2023-03-19T16:45:18.933Z,2.40
2023-03-19T16:47:54.190Z,4.97
2023-03-19T16:50:22.869Z,4.07
2023-03-19T16:52:49.982Z,3.17
2023-03-19T16:55:32.281Z,3.58
2023-03-19T16:58:01.959Z,4.50
2023-03-19T17:00:31.859Z,4.15
2023-03-19T17:02:59.653Z,5.15
2023-03-19T17:05:27.628Z,6.20
2023-03-19T17:07:57.893Z,4.85
2023-03-19T17:10:27.738Z,3.55
2023-03-19T17:12:55.289Z,5.00
2023-03-19T17:15:28.037Z,2.17
2023-03-19T17:17:55.377Z,3.60
2023-03-19T17:20:27.918Z,6.60
2023-03-19T17:22:54.476Z,4.93
2023-03-19T17:25:21.521Z,2.65
2023-03-19T17:27:48.108Z,3.67
2023-03-19T17:30:14.873Z,5.85
2023-03-19T17:32:45.647Z,5.25
2023-03-19T17:35:30.795Z,4.53
2023-03-19T17:37:57.441Z,8.47
2023-03-19T17:40:27.993Z,4.75
2023-03-19T17:42:56.183Z,5.93
2023-03-19T17:45:29.592Z,3.38
2023-03-19T17:47:58.036Z,4.18
2023-03-19T17:50:27.311Z,8.82
2023-03-19T17:52:54.369Z,8.43
2023-03-19T17:55:24.194Z,3.53
2023-03-19T17:57:51.250Z,5.32
2023-03-19T18:00:23.141Z,1.85
2023-03-19T18:02:52.027Z,3.15
2023-03-19T18:05:21.649Z,4.70
2023-03-19T18:07:50.344Z,5.38
2023-03-19T18:10:19.344Z,5.40
2023-03-19T18:12:46.060Z,6.15
2023-03-19T18:15:13.563Z,4.00
2023-03-19T18:17:44.606Z,8.82
2023-03-19T18:20:14.594Z,3.80
2023-03-19T18:22:41.489Z,4.65
2023-03-19T18:25:19.789Z,6.72
2023-03-19T18:27:46.801Z,4.63
2023-03-19T18:30:16.460Z,5.63
2023-03-19T18:32:47.206Z,7.40
2023-03-19T18:35:20.396Z,8.18
2023-03-19T18:37:49.515Z,8.20
2023-03-19T18:40:21.950Z,6.53
2023-03-19T18:42:49.425Z,4.95
2023-03-19T18:45:17.295Z,5.78
2023-03-19T18:47:45.890Z,5.90
2023-03-19T18:50:20.518Z,6.75
2023-03-19T18:52:49.149Z,4.90
2023-03-19T18:55:16.213Z,7.63
2023-03-19T18:57:53.807Z,8.38
2023-03-19T19:00:25.333Z,5.38
2023-03-19T19:02:53.120Z,9.98
2023-03-19T19:05:23.718Z,4.28
2023-03-19T19:07:57.789Z,8.40
2023-03-19T19:10:25.823Z,9.35
2023-03-19T19:12:55.028Z,9.27
2023-03-19T19:15:48.214Z,11.43
2023-03-19T19:18:27.124Z,12.13
2023-03-19T19:20:54.186Z,10.90
2023-03-19T19:23:22.008Z,11.25
2023-03-19T19:25:51.933Z,11.85
2023-03-19T19:28:30.518Z,18.13
2023-03-19T19:30:59.600Z,15.32
2023-03-19T19:33:34.693Z,14.20
2023-03-19T19:36:02.705Z,14.40
2023-03-19T19:38:30.110Z,12.40
2023-03-19T19:40:59.952Z,18.50
2023-03-19T19:43:31.144Z,13.43
2023-03-19T19:45:58.772Z,12.32
2023-03-19T19:48:28.342Z,15.05
2023-03-19T19:50:56.228Z,13.05
2023-03-19T19:53:27.410Z,13.43
2023-03-19T19:55:54.092Z,12.20
2023-03-19T19:58:31.421Z,17.17
2023-03-19T20:01:03.699Z,14.00
2023-03-19T20:03:32.986Z,16.05
2023-03-19T20:06:01.993Z,19.08
2023-03-19T20:08:28.785Z,15.38
2023-03-19T20:10:56.248Z,14.10
2023-03-19T20:13:34.424Z,16.35
2023-03-19T20:16:02.670Z,14.68
2023-03-19T20:18:32.750Z,13.68
2023-03-19T20:20:59.573Z,12.68
2023-03-19T20:23:26.179Z,17.42
2023-03-19T20:25:52.894Z,12.52
2023-03-19T20:28:26.175Z,14.02
2023-03-19T20:30:54.363Z,17.13
2023-03-19T20:33:22.332Z,18.02
2023-03-19T20:35:49.579Z,15.15
2023-03-19T20:38:16.378Z,13.90
2023-03-19T20:40:45.808Z,17.05
2023-03-19T20:43:45.214Z,14.20
2023-03-19T20:46:12.473Z,14.38
2023-03-19T20:48:39.073Z,19.02
2023-03-19T20:51:05.943Z,15.65
2023-03-19T20:53:32.557Z,13.15
2023-03-19T20:56:00.053Z,15.38
2023-03-19T20:58:30.758Z,11.82
2023-03-19T21:00:58.523Z,17.08
2023-03-19T21:03:28.331Z,14.98
2023-03-19T21:06:01.642Z,20.67
2023-03-19T21:08:38.965Z,15.68
2023-03-19T21:11:08.784Z,17.27
2023-03-19T21:13:35.297Z,17.90
2023-03-19T21:16:01.972Z,18.30
2023-03-19T21:18:28.749Z,22.67
2023-03-19T21:20:56.781Z,16.05
2023-03-19T21:23:31.636Z,16.95
2023-03-19T21:26:08.855Z,20.15
2023-03-19T21:28:37.774Z,18.50
2023-03-19T21:31:05.793Z,19.45
2023-03-19T21:33:34.459Z,18.52
2023-03-19T21:36:02.580Z,18.88
2023-03-19T21:38:29.416Z,17.30
2023-03-19T21:41:01.515Z,18.52
2023-03-19T21:43:52.380Z,17.35
2023-03-19T21:46:24.626Z,18.38
2023-03-19T21:48:54.253Z,17.50
2023-03-19T21:51:21.619Z,18.67
2023-03-19T21:53:48.565Z,19.45
2023-03-19T21:56:33.156Z,24.52
2023-03-19T21:59:02.223Z,25.63
2023-03-19T22:01:28.848Z,21.15
2023-03-19T22:03:56.891Z,25.00
2023-03-19T22:06:25.284Z,23.17
2023-03-19T22:08:53.906Z,23.92
2023-03-19T22:11:35.774Z,23.80
2023-03-19T22:14:09.790Z,21.48
2023-03-19T22:16:36.474Z,28.42
2023-03-19T22:19:03.476Z,24.95
2023-03-19T22:21:32.943Z,25.15
2023-03-19T22:23:59.614Z,21.58
2023-03-19T22:26:31.871Z,25.58
2023-03-19T22:29:01.890Z,21.25
2023-03-19T22:31:28.963Z,23.85
2023-03-19T22:33:55.855Z,21.70
2023-03-19T22:36:22.534Z,23.85
2023-03-19T22:38:49.305Z,21.20
2023-03-19T22:41:29.357Z,30.70
2023-03-19T22:43:58.600Z,23.30
2023-03-19T22:46:25.597Z,24.63
2023-03-19T22:48:52.355Z,24.95
2023-03-19T22:51:22.464Z,22.27
2023-03-19T22:53:50.222Z,18.75
2023-03-19T22:56:18.249Z,20.58
2023-03-19T22:58:46.676Z,19.33
2023-03-19T23:01:41.404Z,27.88
2023-03-19T23:04:19.374Z,17.85
2023-03-19T23:06:46.258Z,19.85
2023-03-19T23:09:15.973Z,25.23
2023-03-19T23:11:42.523Z,16.75
2023-03-19T23:14:22.046Z,21.30
2023-03-19T23:16:56.598Z,17.77
2023-03-19T23:19:27.965Z,15.80
2023-03-19T23:21:54.879Z,16.20
2023-03-19T23:24:22.002Z,19.85
2023-03-19T23:26:50.333Z,17.65
2023-03-19T23:29:22.361Z,18.70
2023-03-19T23:31:50.856Z,20.38
2023-03-19T23:34:17.720Z,18.27
2023-03-19T23:36:44.743Z,17.08
2023-03-19T23:39:11.770Z,18.30
2023-03-19T23:41:48.185Z,16.95
2023-03-19T23:44:16.666Z,15.70
2023-03-19T23:46:45.483Z,22.95
2023-03-19T23:49:28.552Z,20.52
2023-03-19T23:51:55.641Z,22.98
2023-03-19T23:54:29.743Z,16.55
2023-03-19T23:56:59.641Z,18.25
2023-03-19T23:59:31.914Z,18.02
